Time;durP1;ratioP1;P1;durP2;ratioP2;P2;SDS_P1;SDS_P2;PMS_P1;PMS_P2;Temp;Humidity;BMP_temperature;BMP_pressure;BME280_temperature;BME280_humidity;BME280_pressure;Samples;Min_cycle;Max_cycle;Signal;HPM_P1;HPM_P2
2022/05/29 00:00:36;;;;;;;;;;;;;;;19.57;67.50;101950.31;6109646;23;19952;-77
2022/05/29 00:03:02;;;;;;;;;;;;;;;19.57;67.50;101960.75;6109030;23;19999;-77
2022/05/29 00:05:27;;;;;;;;;;;;;;;19.56;67.10;101943.34;6133924;23;19960;-77
2022/05/29 00:07:53;;;;;;;;;;;;;;;19.56;67.42;101943.34;6132690;23;19917;-75
2022/05/29 00:10:18;;;;;;;;;;;;;;;19.56;67.47;101934.66;6132141;23;19915;-74
2022/05/29 00:12:43;;;;;;;;;;;;;;;19.57;67.32;101936.38;6107004;23;19967;-74
2022/05/29 00:15:10;;;;;;;;;;;;;;;19.57;67.30;101941.59;6107998;23;19913;-75
2022/05/29 00:17:35;;;;;;;;;;;;;;;19.57;67.45;101939.00;6109309;23;20222;-78
2022/05/29 00:20:01;;;;;;;;;;;;;;;19.57;67.09;101931.16;6109370;23;19924;-78
2022/05/29 00:22:29;;;;;;;;;;;;;;;19.57;67.22;101931.16;6131378;23;20196;-78
2022/05/29 00:24:54;;;;;;;;;;;;;;;19.57;67.06;101925.94;6134025;23;19991;-78
2022/05/29 00:27:20;;;;;;;;;;;;;;;19.57;67.30;101925.94;6158575;23;19916;-75
2022/05/29 00:29:45;;;;;;;;;;;;;;;19.55;67.27;101925.94;6131788;23;19960;-75
2022/05/29 00:32:11;;;;;;;;;;;;;;;19.57;67.17;101932.03;6107221;23;20388;-77
2022/05/29 00:34:36;;;;;;;;;;;;;;;19.57;66.82;101929.41;6159397;23;19912;-78
2022/05/29 00:37:04;;;;;;;;;;;;;;;19.58;67.04;101927.69;6133135;23;19913;-78
2022/05/29 00:39:29;;;;;;;;;;;;;;;19.57;66.74;101924.19;6133118;23;19919;-78
2022/05/29 00:41:54;;;;;;;;;;;;;;;19.58;66.79;101927.69;6132745;23;19932;-78
2022/05/29 00:44:21;;;;;;;;;;;;;;;19.57;66.24;101926.81;6108417;23;19928;-75
2022/05/29 00:46:51;;;;;;;;;;;;;;;19.56;66.55;101919.84;6131745;23;20277;-75
2022/05/29 00:49:18;;;;;;;;;;;;;;;19.58;66.46;101922.47;6157476;23;19908;-75
2022/05/29 00:51:46;;;;;;;;;;;;;;;19.58;65.99;101922.47;6132642;23;19909;-76
2022/05/29 00:54:12;;;;;;;;;;;;;;;19.59;66.57;101916.38;6132842;23;19908;-75
2022/05/29 00:56:38;;;;;;;;;;;;;;;19.57;66.22;101913.75;6158166;23;19967;-75
2022/05/29 00:59:06;;;;;;;;;;;;;;;19.58;66.74;101906.81;6158762;23;19924;-77
2022/05/29 01:01:31;;;;;;;;;;;;;;;19.58;66.04;101907.66;6132160;23;20035;-75
2022/05/29 01:03:56;;;;;;;;;;;;;;;19.58;65.67;101899.84;6131972;23;20245;-74
2022/05/29 01:06:22;;;;;;;;;;;;;;;19.59;65.90;101898.09;6132741;23;20325;-75
2022/05/29 01:08:47;;;;;;;;;;;;;;;19.57;66.00;101898.09;6158548;23;19975;-75
2022/05/29 01:11:20;;;;;;;;;;;;;;;19.59;65.61;101898.09;6132597;23;19938;-75
2022/05/29 01:14:08;;;;;;;;;;;;;;;19.58;65.49;101898.97;6133806;23;19915;-78
2022/05/29 01:16:52;;;;;;;;;;;;;;;19.57;65.51;101890.25;6133180;23;19913;-75
2022/05/29 01:19:36;;;;;;;;;;;;;;;19.57;65.48;101892.00;6132469;23;19913;-75
2022/05/29 01:22:07;;;;;;;;;;;;;;;19.58;65.02;101888.53;6132477;23;19916;-75
2022/05/29 01:24:33;;;;;;;;;;;;;;;19.57;65.14;101887.63;6157564;23;19940;-75
2022/05/29 01:27:04;;;;;;;;;;;;;;;19.58;64.92;101875.47;6157931;23;20219;-74
2022/05/29 01:29:52;;;;;;;;;;;;;;;19.57;64.98;101874.59;6132032;23;19996;-75
2022/05/29 01:32:24;;;;;;;;;;;;;;;19.57;64.95;101858.91;6124101;23;19908;-75
2022/05/29 01:34:54;;;;;;;;;;;;;;;19.60;65.04;101871.09;6132892;23;20321;-74
2022/05/29 01:37:22;;;;;;;;;;;;;;;19.58;64.84;101867.66;6160184;23;19909;-75
2022/05/29 01:39:56;;;;;;;;;;;;;;;19.58;64.72;101863.28;6159784;23;19912;-75
2022/05/29 01:42:27;;;;;;;;;;;;;;;19.57;64.97;101863.28;6159973;23;19915;-75
2022/05/29 01:45:01;;;;;;;;;;;;;;;19.59;64.83;101861.53;6134538;23;19909;-75
2022/05/29 01:47:47;;;;;;;;;;;;;;;19.58;64.62;101859.81;6136339;23;19909;-77
2022/05/29 01:50:16;;;;;;;;;;;;;;;19.60;64.46;101865.88;6165319;23;19909;-78
2022/05/29 01:52:47;;;;;;;;;;;;;;;19.60;64.26;101865.88;6138813;23;20238;-77
2022/05/29 01:55:18;;;;;;;;;;;;;;;19.60;63.96;101868.47;6139300;23;19963;-77
2022/05/29 01:57:46;;;;;;;;;;;;;;;19.59;63.93;101869.38;6140028;23;19909;-77
2022/05/29 02:00:19;;;;;;;;;;;;;;;19.59;64.08;101867.63;6142260;23;19913;-78
2022/05/29 02:02:56;;;;;;;;;;;;;;;19.60;63.83;101865.88;6145122;23;19963;-78
2022/05/29 02:05:24;;;;;;;;;;;;;;;19.60;63.77;101861.53;6144267;23;19932;-79
2022/05/29 02:07:55;;;;;;;;;;;;;;;19.59;63.47;101867.63;6168300;23;19923;-77
2022/05/29 02:10:20;;;;;;;;;;;;;;;19.60;63.54;101860.66;6142304;23;20238;-77
2022/05/29 02:12:50;;;;;;;;;;;;;;;19.60;63.39;101860.66;6167413;23;19908;-77
2022/05/29 02:15:18;;;;;;;;;;;;;;;19.58;63.31;101850.22;6166745;23;19909;-77
2022/05/29 02:17:46;;;;;;;;;;;;;;;19.59;63.39;101861.53;6140194;23;19963;-77
2022/05/29 02:20:30;;;;;;;;;;;;;;;19.59;63.21;101856.31;6139887;23;19944;-77
2022/05/29 02:22:59;;;;;;;;;;;;;;;19.61;63.14;101857.19;6167960;23;19954;-77
2022/05/29 02:25:26;;;;;;;;;;;;;;;19.59;63.15;101856.31;6166779;23;19916;-77
2022/05/29 02:27:59;;;;;;;;;;;;;;;19.60;62.77;101855.44;6166263;23;20266;-77
2022/05/29 02:30:29;;;;;;;;;;;;;;;19.60;62.74;101850.19;6139573;23;19943;-77
2022/05/29 02:32:54;;;;;;;;;;;;;;;19.58;62.59;101844.16;6163994;23;19909;-77
2022/05/29 02:35:39;;;;;;;;;;;;;;;19.60;62.38;101847.59;6139943;23;19916;-77
2022/05/29 02:38:17;;;;;;;;;;;;;;;19.60;62.37;101844.97;6165672;23;20301;-77
2022/05/29 02:40:49;;;;;;;;;;;;;;;19.60;62.38;101843.25;6163544;23;19983;-77
2022/05/29 02:43:26;;;;;;;;;;;;;;;19.61;62.30;101845.00;6165273;23;19909;-76
2022/05/29 02:45:56;;;;;;;;;;;;;;;19.61;62.36;101845.00;6166156;23;19931;-76
2022/05/29 02:48:26;;;;;;;;;;;;;;;19.61;62.20;101841.50;6140774;23;20321;-77
2022/05/29 02:50:51;;;;;;;;;;;;;;;19.61;62.06;101838.91;6165047;23;20348;-79
2022/05/29 02:53:17;;;;;;;;;;;;;;;19.61;61.90;101831.94;6139319;23;19909;-78
2022/05/29 02:55:43;;;;;;;;;;;;;;;19.62;61.70;101828.47;6114668;23;19921;-79
2022/05/29 02:58:19;;;;;;;;;;;;;;;19.62;61.53;101825.84;6165051;23;19940;-78
2022/05/29 03:00:57;;;;;;;;;;;;;;;19.63;61.32;101832.81;6139901;23;19909;-78
2022/05/29 03:03:25;;;;;;;;;;;;;;;19.63;61.31;101824.09;6165868;23;19915;-78
2022/05/29 03:06:00;;;;;;;;;;;;;;;19.63;61.41;101821.50;6166717;23;19908;-78
2022/05/29 03:08:31;;;;;;;;;;;;;;;19.62;61.17;101828.47;6140501;23;20027;-78
2022/05/29 03:11:02;;;;;;;;;;;;;;;19.63;61.37;101821.50;6140174;23;19909;-78
2022/05/29 03:13:35;;;;;;;;;;;;;;;19.63;61.00;101817.13;6165829;23;19915;-78
2022/05/29 03:16:01;;;;;;;;;;;;;;;19.64;60.95;101818.00;6165350;23;19924;-78
2022/05/29 03:18:38;;;;;;;;;;;;;;;19.64;61.00;101818.00;6139710;23;19983;-78
2022/05/29 03:21:06;;;;;;;;;;;;;;;19.64;60.87;101812.78;6165534;23;19908;-77
2022/05/29 03:23:34;;;;;;;;;;;;;;;19.64;60.43;101813.66;6165668;23;19925;-78
2022/05/29 03:26:01;;;;;;;;;;;;;;;19.65;60.78;101817.13;6139594;23;20241;-78
2022/05/29 03:28:30;;;;;;;;;;;;;;;19.66;60.38;101818.88;6140108;23;19909;-78
2022/05/29 03:30:57;;;;;;;;;;;;;;;19.65;60.37;101810.16;6133707;23;20376;-73
2022/05/29 03:33:23;;;;;;;;;;;;;;;19.66;60.44;101805.81;6158497;23;19909;-75
2022/05/29 03:35:51;;;;;;;;;;;;;;;19.66;60.07;101806.69;6107542;23;19917;-73
2022/05/29 03:38:16;;;;;;;;;;;;;;;19.66;59.98;101811.91;6157804;23;20237;-73
2022/05/29 03:40:41;;;;;;;;;;;;;;;19.66;60.00;101813.63;6132004;23;19940;-74
2022/05/29 03:43:07;;;;;;;;;;;;;;;19.67;59.74;101810.19;6131912;23;19920;-74
2022/05/29 03:45:32;;;;;;;;;;;;;;;19.68;59.78;101809.28;6107539;23;19920;-74
2022/05/29 03:47:57;;;;;;;;;;;;;;;19.68;59.78;101809.28;6158143;23;19909;-74
2022/05/29 03:50:24;;;;;;;;;;;;;;;19.68;59.26;101798.84;6131784;23;19995;-74
2022/05/29 03:52:49;;;;;;;;;;;;;;;19.68;59.31;101799.69;6157969;23;19909;-74
2022/05/29 03:55:15;;;;;;;;;;;;;;;19.69;59.33;101805.81;6132021;23;20217;-74
2022/05/29 03:57:41;;;;;;;;;;;;;;;19.71;59.08;101793.66;6132294;23;19912;-74
2022/05/29 04:00:08;;;;;;;;;;;;;;;19.72;59.01;101798.00;6131841;23;19913;-74
2022/05/29 04:02:33;;;;;;;;;;;;;;;19.72;58.72;101793.63;6131664;23;20301;-74
2022/05/29 04:04:58;;;;;;;;;;;;;;;19.72;58.83;101798.84;6158399;23;19908;-76
2022/05/29 04:12:03;;;;;;;;;;;;;;;19.73;58.79;101794.53;6140330;23;19910;-77
2022/05/29 04:12:54;;;;;;;;;;;;;;;19.73;58.51;101791.91;6166392;23;19959;-77
2022/05/29 04:15:19;;;;;;;;;;;;;;;19.73;58.19;101787.56;6139924;23;19909;-77
2022/05/29 04:17:44;;;;;;;;;;;;;;;19.73;58.35;101791.91;6113853;23;19961;-77
2022/05/29 04:20:10;;;;;;;;;;;;;;;19.74;58.28;101783.19;6165851;23;19917;-76
2022/05/29 04:22:35;;;;;;;;;;;;;;;19.76;57.97;101785.81;6113985;23;19913;-76
2022/05/29 04:25:00;;;;;;;;;;;;;;;19.76;57.90;101784.06;6139138;23;19913;-76
2022/05/29 04:27:26;;;;;;;;;;;;;;;19.78;57.73;101781.44;6115117;23;20237;-76
2022/05/29 04:29:51;;;;;;;;;;;;;;;19.79;57.62;101773.59;6140926;23;19971;-75
2022/05/29 04:35:00;;;;;;;;;;;;;;;19.81;57.18;101771.84;6149292;23;19919;-77
2022/05/29 04:37:27;;;;;;;;;;;;;;;19.81;57.36;101774.44;6149676;23;19917;-77
2022/05/29 04:39:52;;;;;;;;;;;;;;;19.79;57.38;101773.59;6148813;23;19912;-77
2022/05/29 04:42:18;;;;;;;;;;;;;;;19.81;57.11;101773.59;6174120;23;19932;-79
2022/05/29 04:44:43;;;;;;;;;;;;;;;19.81;57.00;101766.59;6145066;23;19912;-77
2022/05/29 04:47:09;;;;;;;;;;;;;;;19.92;53.68;101761.34;6144381;23;19913;-78
2022/05/29 04:49:36;;;;;;;;;;;;;;;20.04;52.88;101760.44;6145360;23;19908;-77
2022/05/29 04:52:01;;;;;;;;;;;;;;;20.22;52.09;101759.44;6145795;23;19915;-77
2022/05/29 04:54:26;;;;;;;;;;;;;;;20.37;52.49;101756.75;6171556;23;19916;-77
2022/05/29 04:56:51;;;;;;;;;;;;;;;20.47;52.92;101754.91;6144066;23;19960;-77
2022/05/29 04:59:17;;;;;;;;;;;;;;;20.59;53.28;101746.16;6170509;23;19936;-77
2022/05/29 05:01:42;;;;;;;;;;;;;;;20.66;52.72;101743.47;6146578;23;19912;-77
2022/05/29 05:04:08;;;;;;;;;;;;;;;20.75;52.43;101743.44;6146085;23;19915;-77
2022/05/29 05:06:33;;;;;;;;;;;;;;;20.82;51.82;101748.56;6170908;23;19928;-77
2022/05/29 05:09:00;;;;;;;;;;;;;;;20.88;52.06;101735.44;6171438;23;19956;-78
2022/05/29 05:11:25;;;;;;;;;;;;;;;20.93;52.16;101745.00;6145035;23;19909;-78
2022/05/29 05:13:50;;;;;;;;;;;;;;;20.93;52.08;101739.78;6170612;23;19909;-78
2022/05/29 05:16:16;;;;;;;;;;;;;;;20.86;51.86;101742.44;6144126;23;19948;-78
2022/05/29 05:18:41;;;;;;;;;;;;;;;20.79;50.92;101739.00;6169403;23;19913;-77
2022/05/29 05:21:06;;;;;;;;;;;;;;;20.78;49.72;101741.66;6138792;23;19912;-77
2022/05/29 05:23:32;;;;;;;;;;;;;;;20.76;50.40;101739.06;6167054;23;19909;-78
2022/05/29 05:25:57;;;;;;;;;;;;;;;20.78;50.01;101742.53;6169055;23;19912;-78
2022/05/29 05:28:22;;;;;;;;;;;;;;;20.82;50.04;101731.16;6142484;23;19913;-78
2022/05/29 05:30:48;;;;;;;;;;;;;;;20.80;50.27;101732.91;6117729;23;19924;-77
2022/05/29 05:33:14;;;;;;;;;;;;;;;20.78;50.66;101744.28;6119019;23;19916;-77
2022/05/29 05:35:39;;;;;;;;;;;;;;;20.99;50.53;101736.25;6170599;23;19909;-77
2022/05/29 05:38:05;;;;;;;;;;;;;;;20.87;50.63;101734.59;6142814;23;20372;-78
2022/05/29 05:40:30;;;;;;;;;;;;;;;20.78;49.74;101742.53;6142677;23;19908;-77
2022/05/29 05:42:58;;;;;;;;;;;;;;;20.86;50.40;101747.66;6169132;23;20321;-77
2022/05/29 05:45:24;;;;;;;;;;;;;;;21.20;50.17;101753.47;6144266;23;20352;-77
2022/05/29 05:47:49;;;;;;;;;;;;;;;21.44;49.06;101759.34;6141408;23;19913;-77
2022/05/29 05:50:15;;;;;;;;;;;;;;;21.68;48.79;101747.72;6131467;23;19909;-78
2022/05/29 05:52:40;;;;;;;;;;;;;;;21.90;48.44;101754.41;6130495;23;19908;-76
2022/05/29 05:55:07;;;;;;;;;;;;;;;22.07;47.57;101750.72;6156624;23;19921;-77
2022/05/29 05:57:32;;;;;;;;;;;;;;;22.14;46.04;101744.50;6156425;23;19908;-77
2022/05/29 05:59:57;;;;;;;;;;;;;;;21.57;46.95;101751.34;6113983;23;19920;-78
2022/05/29 06:02:23;;;;;;;;;;;;;;;21.34;47.70;101756.81;6169511;23;19909;-77
2022/05/29 06:04:49;;;;;;;;;;;;;;;21.17;48.86;101756.13;6143938;23;19960;-78
2022/05/29 06:07:14;;;;;;;;;;;;;;;21.66;47.87;101749.50;6143692;23;19932;-78
2022/05/29 06:09:40;;;;;;;;;;;;;;;22.31;45.93;101749.53;6142714;23;19913;-77
2022/05/29 06:12:07;;;;;;;;;;;;;;;22.40;44.69;101746.75;6111829;23;19913;-77
2022/05/29 06:14:34;;;;;;;;;;;;;;;22.54;47.50;101749.19;6139494;23;19999;-78
2022/05/29 06:16:59;;;;;;;;;;;;;;;22.01;45.28;101746.41;6137410;23;19932;-78
2022/05/29 06:19:25;;;;;;;;;;;;;;;21.51;46.22;101746.19;6165828;23;19912;-78
2022/05/29 06:21:50;;;;;;;;;;;;;;;21.27;46.71;101749.88;6113126;23;19956;-77
2022/05/29 06:24:15;;;;;;;;;;;;;;;21.06;47.18;101740.53;6115861;23;19939;-78
2022/05/29 06:26:40;;;;;;;;;;;;;;;21.03;46.81;101742.28;6164771;23;19991;-78
2022/05/29 06:29:06;;;;;;;;;;;;;;;20.96;47.26;101741.47;6116264;23;19913;-77
2022/05/29 06:31:31;;;;;;;;;;;;;;;20.91;47.69;101735.44;6118278;23;19985;-77
2022/05/29 06:33:56;;;;;;;;;;;;;;;20.86;47.81;101738.09;6142427;23;19932;-77
2022/05/29 06:36:23;;;;;;;;;;;;;;;20.83;47.73;101732.88;6118461;23;19913;-77
2022/05/29 06:38:49;;;;;;;;;;;;;;;20.80;47.33;101745.13;6168857;23;19995;-77
2022/05/29 06:41:15;;;;;;;;;;;;;;;20.81;47.05;101746.84;6144426;23;19909;-77
2022/05/29 06:43:41;;;;;;;;;;;;;;;20.79;46.96;101746.00;6172095;23;19912;-77
2022/05/29 06:46:07;;;;;;;;;;;;;;;20.79;47.18;101744.25;6144656;23;20384;-78
2022/05/29 06:48:34;;;;;;;;;;;;;;;20.81;46.85;101736.41;6145024;23;19909;-77
2022/05/29 06:51:03;;;;;;;;;;;;;;;20.83;46.12;101739.88;6145263;23;19908;-77
2022/05/29 06:53:32;;;;;;;;;;;;;;;20.82;46.28;101744.25;6163646;23;20218;-77
2022/05/29 06:55:57;;;;;;;;;;;;;;;20.78;46.39;101744.28;6114663;23;19920;-78
2022/05/29 06:58:23;;;;;;;;;;;;;;;20.75;46.78;101739.91;6171054;23;19967;-77
2022/05/29 07:09:00;;;;;;;;;;;;;;;20.65;47.07;101739.13;6169705;23;19915;-77
2022/05/29 07:11:27;;;;;;;;;;;;;;;20.61;46.69;101736.56;6142965;23;19913;-77
2022/05/29 07:13:54;;;;;;;;;;;;;;;20.59;46.40;101733.09;6144035;23;19908;-77
2022/05/29 07:16:19;;;;;;;;;;;;;;;20.61;47.54;101747.03;6174254;23;19939;-77
2022/05/29 07:18:44;;;;;;;;;;;;;;;20.62;46.94;101765.34;6173797;23;19912;-77
2022/05/29 07:21:10;;;;;;;;;;;;;;;20.65;46.18;101767.06;6122008;23;19896;-78
2022/05/29 07:23:36;;;;;;;;;;;;;;;20.71;46.58;101767.88;6170935;23;19908;-78
2022/05/29 07:26:03;;;;;;;;;;;;;;;20.73;46.72;101762.59;6120585;23;19935;-78
2022/05/29 07:28:29;;;;;;;;;;;;;;;20.76;46.74;101757.38;6170514;23;19916;-78
2022/05/29 07:30:57;;;;;;;;;;;;;;;20.78;46.67;101753.00;6171821;23;19916;-78
2022/05/29 07:33:23;;;;;;;;;;;;;;;20.84;46.65;101760.78;6144154;23;19909;-77
2022/05/29 07:35:48;;;;;;;;;;;;;;;20.89;46.57;101752.91;6145158;23;19919;-77
2022/05/29 07:38:14;;;;;;;;;;;;;;;20.95;46.47;101758.09;6144240;23;20329;-77
2022/05/29 07:40:39;;;;;;;;;;;;;;;20.97;46.49;101751.09;6143884;23;19928;-78
2022/05/29 07:43:19;;;;;;;;;;;;;;;20.98;46.70;101744.97;6144094;23;19991;-78
2022/05/29 07:45:59;;;;;;;;;;;;;;;21.04;46.67;101750.13;6147920;23;19913;-77
2022/05/29 07:48:25;;;;;;;;;;;;;;;21.21;46.39;101749.97;6171374;23;19967;-78
2022/05/29 07:50:51;;;;;;;;;;;;;;;21.48;45.88;101743.59;6142494;23;19915;-78
2022/05/29 07:53:16;;;;;;;;;;;;;;;21.44;45.54;101747.13;6143603;23;19909;-78
2022/05/29 07:55:43;;;;;;;;;;;;;;;21.57;45.53;101742.63;6142072;23;20003;-78
2022/05/29 07:58:08;;;;;;;;;;;;;;;21.62;45.09;101740.81;6147692;23;19916;-78
2022/05/29 08:00:34;;;;;;;;;;;;;;;21.65;45.07;101737.31;6149639;23;19917;-79
2022/05/29 08:03:00;;;;;;;;;;;;;;;21.63;45.31;101741.69;6175938;23;19936;-80
2022/05/29 08:05:31;;;;;;;;;;;;;;;21.52;45.45;101739.19;6170230;23;19940;-76
2022/05/29 08:07:56;;;;;;;;;;;;;;;21.44;46.25;101747.13;6120127;23;19920;-78
2022/05/29 08:10:22;;;;;;;;;;;;;;;21.36;48.50;101746.31;6144855;23;19913;-78
2022/05/29 08:12:50;;;;;;;;;;;;;;;21.20;49.25;101742.13;6146147;23;19909;-78
2022/05/29 08:15:16;;;;;;;;;;;;;;;21.12;49.70;101742.19;6169762;23;19919;-76
2022/05/29 08:17:42;;;;;;;;;;;;;;;21.06;50.61;101747.50;6142694;23;19908;-76
2022/05/29 08:20:14;;;;;;;;;;;;;;;21.04;50.89;101751.91;6141940;23;20241;-77
2022/05/29 08:22:39;;;;;;;;;;;;;;;21.03;50.78;101748.38;6168440;23;19932;-77
2022/05/29 08:30:43;;;;;;;;;;;;;;;21.10;50.98;101749.19;6172100;23;19916;-77
2022/05/29 08:33:18;;;;;;;;;;;;;;;21.16;51.06;101746.53;6168548;23;19912;-77
2022/05/29 08:35:45;;;;;;;;;;;;;;;21.22;51.18;101748.22;6168705;23;19908;-77
2022/05/29 08:38:11;;;;;;;;;;;;;;;21.19;50.94;101743.00;6170583;23;19909;-77
2022/05/29 08:40:41;;;;;;;;;;;;;;;21.14;51.21;101743.06;6170732;23;19909;-77
2022/05/29 08:43:07;;;;;;;;;;;;;;;21.08;51.58;101743.13;6142612;23;19909;-78
2022/05/29 08:45:34;;;;;;;;;;;;;;;21.03;51.85;101739.69;6166721;23;19976;-77
2022/05/29 08:48:00;;;;;;;;;;;;;;;20.97;51.82;101740.63;6141865;23;19932;-77
2022/05/29 08:50:33;;;;;;;;;;;;;;;20.92;52.68;101738.03;6115199;23;19912;-77
2022/05/29 08:52:59;;;;;;;;;;;;;;;20.91;52.31;101740.66;6140935;23;19924;-78
2022/05/29 08:55:24;;;;;;;;;;;;;;;20.86;52.40;101755.53;6166578;23;19920;-78
2022/05/29 08:57:54;;;;;;;;;;;;;;;20.84;52.60;101757.28;6140737;23;19984;-78
2022/05/29 09:00:27;;;;;;;;;;;;;;;20.83;52.76;101751.19;6164280;23;19913;-78
2022/05/29 09:02:58;;;;;;;;;;;;;;;20.88;52.70;101745.91;6164068;23;19909;-78
2022/05/29 09:05:43;;;;;;;;;;;;;;;20.89;52.87;101750.28;6164730;23;19913;-78
2022/05/29 09:08:14;;;;;;;;;;;;;;;20.93;52.90;101752.00;6164661;23;20317;-78
2022/05/29 09:10:44;;;;;;;;;;;;;;;20.98;53.00;101747.56;6133997;23;19908;-78
2022/05/29 09:13:15;;;;;;;;;;;;;;;21.06;52.37;101751.00;6159561;23;19936;-75
2022/05/29 09:15:43;;;;;;;;;;;;;;;21.11;52.68;101738.72;6162358;23;19909;-78
2022/05/29 09:18:17;;;;;;;;;;;;;;;21.19;52.29;101740.38;6139442;23;19912;-78
2022/05/29 09:20:56;;;;;;;;;;;;;;;21.22;52.16;101740.38;6136879;23;19913;-78
2022/05/29 09:23:29;;;;;;;;;;;;;;;21.21;51.71;101734.28;6164741;23;19916;-78
2022/05/29 09:25:56;;;;;;;;;;;;;;;21.22;51.85;101729.91;6138668;23;19919;-78
2022/05/29 09:28:24;;;;;;;;;;;;;;;21.21;52.14;101746.47;6137783;23;19936;-78
2022/05/29 09:30:51;;;;;;;;;;;;;;;21.18;51.98;101729.06;6162047;23;19932;-75
2022/05/29 09:33:26;;;;;;;;;;;;;;;21.17;52.52;101725.56;6158063;23;19915;-77
2022/05/29 09:36:21;;;;;;;;;;;;;;;21.26;52.65;101728.97;6135997;23;19915;-78
2022/05/29 09:38:50;;;;;;;;;;;;;;;21.17;55.79;101733.44;6148431;23;19912;-77
2022/05/29 09:41:22;;;;;;;;;;;;;;;21.09;58.10;101737.88;6163681;23;19909;-76
2022/05/29 09:43:59;;;;;;;;;;;;;;;21.03;59.14;101735.31;6135296;23;19987;-77
2022/05/29 09:46:30;;;;;;;;;;;;;;;21.03;58.94;101737.91;6160872;23;19912;-78
2022/05/29 09:51:42;;;;;;;;;;;;;;;20.97;59.33;101738.00;6161169;23;19931;-77
2022/05/29 09:54:10;;;;;;;;;;;;;;;20.89;59.82;101742.44;6167437;23;19909;-76
2022/05/29 09:56:35;;;;;;;;;;;;;;;20.88;59.51;101744.19;6140123;23;19924;-76
2022/05/29 09:59:17;;;;;;;;;;;;;;;20.90;59.65;101745.00;6167024;23;20333;-77
2022/05/29 10:01:45;;;;;;;;;;;;;;;20.88;59.60;101749.41;6168231;23;19959;-77
2022/05/29 10:04:12;;;;;;;;;;;;;;;20.87;59.46;101742.44;6142436;23;19936;-78
2022/05/29 10:06:42;;;;;;;;;;;;;;;20.86;59.80;101737.22;6142244;23;19931;-77
2022/05/29 10:09:10;;;;;;;;;;;;;;;20.84;59.84;101742.47;6142318;23;20218;-77
2022/05/29 10:11:36;;;;;;;;;;;;;;;20.82;59.61;101735.50;6141589;23;20214;-77
2022/05/29 10:14:22;;;;;;;;;;;;;;;20.79;59.73;101731.16;6167296;23;19916;-79
2022/05/29 10:16:49;;;;;;;;;;;;;;;20.79;59.72;101744.25;6166311;23;19908;-78
2022/05/29 10:19:30;;;;;;;;;;;;;;;20.78;59.61;101729.44;6138472;23;19920;-78
2022/05/29 10:21:56;;;;;;;;;;;;;;;20.77;59.61;101748.63;6138729;23;19909;-78
2022/05/29 10:24:23;;;;;;;;;;;;;;;20.77;59.52;101734.69;6139940;23;20314;-78
2022/05/29 10:26:53;;;;;;;;;;;;;;;20.75;59.64;101732.97;6164515;23;20349;-78
2022/05/29 10:29:28;;;;;;;;;;;;;;;20.77;59.85;101739.91;6163344;23;19916;-77
2022/05/29 10:31:54;;;;;;;;;;;;;;;20.79;59.67;101727.69;6137599;23;19908;-77
2022/05/29 10:34:26;;;;;;;;;;;;;;;20.83;59.47;101727.66;6135998;23;19992;-77
2022/05/29 10:36:51;;;;;;;;;;;;;;;20.86;59.37;101725.03;6137835;23;20218;-77
2022/05/29 10:39:24;;;;;;;;;;;;;;;20.86;59.32;101726.75;6162951;23;19913;-77
2022/05/29 10:41:50;;;;;;;;;;;;;;;20.90;59.40;101723.22;6164564;23;19912;-77
2022/05/29 10:44:34;;;;;;;;;;;;;;;20.93;59.11;101720.59;6140083;23;19908;-77
2022/05/29 10:47:08;;;;;;;;;;;;;;;20.88;59.55;101723.25;6137998;23;19909;-77
2022/05/29 10:49:42;;;;;;;;;;;;;;;20.89;59.34;101721.50;6140060;23;19909;-76
2022/05/29 10:52:10;;;;;;;;;;;;;;;20.86;59.84;101722.41;6141291;23;19935;-77
2022/05/29 10:54:44;;;;;;;;;;;;;;;20.85;59.46;101714.56;6169420;23;19960;-77
2022/05/29 10:57:13;;;;;;;;;;;;;;;20.88;59.28;101725.88;6139488;23;19909;-78
2022/05/29 10:59:38;;;;;;;;;;;;;;;20.90;59.39;101726.69;6141448;23;19961;-78
2022/05/29 11:05:05;;;;;;;;;;;;;;;20.91;59.21;101731.06;6167681;23;19916;-78
2022/05/29 11:07:46;;;;;;;;;;;;;;;20.90;58.80;101723.22;6139488;23;19915;-78
2022/05/29 11:10:21;;;;;;;;;;;;;;;20.89;58.65;101719.75;6167511;23;19915;-78
2022/05/29 11:13:06;;;;;;;;;;;;;;;20.90;58.55;101724.09;6169355;23;19909;-77
2022/05/29 11:15:37;;;;;;;;;;;;;;;20.88;58.89;101725.88;6142447;23;19908;-77
2022/05/29 11:18:22;;;;;;;;;;;;;;;20.89;58.84;101729.34;6169022;23;19908;-77
2022/05/29 11:21:01;;;;;;;;;;;;;;;20.89;58.74;101724.13;6142961;23;19912;-78
2022/05/29 11:23:32;;;;;;;;;;;;;;;20.86;58.86;101717.16;6168950;23;19908;-79
2022/05/29 11:26:16;;;;;;;;;;;;;;;20.87;58.93;101707.56;6144193;23;19932;-77
2022/05/29 11:29:00;;;;;;;;;;;;;;;20.88;58.89;101702.34;6172361;23;19909;-77
2022/05/29 11:31:31;;;;;;;;;;;;;;;20.92;59.02;101711.84;6144735;23;19955;-77
2022/05/29 11:34:19;;;;;;;;;;;;;;;20.94;58.93;101707.47;6146447;23;19909;-77
2022/05/29 11:37:11;;;;;;;;;;;;;;;20.92;59.21;101709.25;6143656;23;19913;-78
2022/05/29 11:39:42;;;;;;;;;;;;;;;20.94;61.59;101710.09;6173088;23;19913;-77
2022/05/29 11:42:13;;;;;;;;;;;;;;;20.90;60.72;101710.13;6168551;23;19909;-77
2022/05/29 11:44:57;;;;;;;;;;;;;;;20.79;60.75;101706.75;6165039;23;19908;-77
2022/05/29 11:52:59;;;;;;;;;;;;;;;20.63;60.62;101714.75;6169652;23;19932;-78
2022/05/29 11:55:29;;;;;;;;;;;;;;;20.62;60.41;101717.38;6168343;23;19924;-77
2022/05/29 11:58:01;;;;;;;;;;;;;;;20.59;60.58;101702.56;6142678;23;19912;-78
2022/05/29 12:00:33;;;;;;;;;;;;;;;20.61;60.72;101705.19;6169920;23;19913;-77
2022/05/29 12:03:07;;;;;;;;;;;;;;;20.58;60.39;101699.97;6169767;23;19956;-78
2022/05/29 12:05:32;;;;;;;;;;;;;;;20.55;60.13;101712.16;6141415;23;19908;-77
2022/05/29 12:07:57;;;;;;;;;;;;;;;20.57;60.07;101709.56;6140145;23;19909;-79
2022/05/29 12:10:23;;;;;;;;;;;;;;;20.53;59.82;101706.09;6139866;23;19908;-77
2022/05/29 12:13:01;;;;;;;;;;;;;;;20.50;59.97;101707.84;6141978;23;19913;-79
2022/05/29 12:15:28;;;;;;;;;;;;;;;20.50;59.76;101698.25;6168047;23;19931;-79
2022/05/29 12:17:57;;;;;;;;;;;;;;;20.48;59.91;101701.75;6168767;23;19908;-78
2022/05/29 12:20:35;;;;;;;;;;;;;;;20.52;60.26;101706.09;6169634;23;19913;-78
2022/05/29 12:23:17;;;;;;;;;;;;;;;20.50;60.08;101690.41;6142759;23;19988;-78
2022/05/29 12:25:47;;;;;;;;;;;;;;;20.48;60.22;101691.31;6167545;23;19909;-78
2022/05/29 12:28:23;;;;;;;;;;;;;;;20.53;60.41;101692.13;6168279;23;19928;-78
2022/05/29 12:30:49;;;;;;;;;;;;;;;20.52;59.47;101693.03;6148611;23;20400;-78
2022/05/29 12:33:16;;;;;;;;;;;;;;;20.48;59.17;101696.53;6149394;23;19999;-79
2022/05/29 12:36:00;;;;;;;;;;;;;;;20.46;59.16;101690.44;6151587;23;19916;-79
2022/05/29 12:38:25;;;;;;;;;;;;;;;20.42;58.68;101688.75;6177365;23;19961;-79
2022/05/29 12:41:04;;;;;;;;;;;;;;;20.43;58.88;101683.50;6152953;23;19908;-79
2022/05/29 12:43:42;;;;;;;;;;;;;;;20.45;58.95;101686.13;6177826;23;19893;-79
2022/05/29 12:46:21;;;;;;;;;;;;;;;20.47;58.67;101674.75;6151540;23;19952;-79
2022/05/29 12:49:05;;;;;;;;;;;;;;;20.44;58.93;101680.00;6151449;23;19909;-79
2022/05/29 12:51:33;;;;;;;;;;;;;;;20.45;58.60;101675.66;6176381;23;19909;-79
2022/05/29 12:53:58;;;;;;;;;;;;;;;20.46;58.70;101683.47;6147288;23;19909;-79
2022/05/29 12:56:38;;;;;;;;;;;;;;;20.49;58.49;101693.03;6143300;23;19926;-79
2022/05/29 12:59:21;;;;;;;;;;;;;;;20.49;58.42;101685.19;6141434;23;19916;-79
2022/05/29 13:01:54;;;;;;;;;;;;;;;20.49;58.40;101685.19;6167024;23;19916;-78
2022/05/29 13:04:22;;;;;;;;;;;;;;;20.46;58.19;101690.44;6165684;23;19909;-79
2022/05/29 13:06:50;;;;;;;;;;;;;;;20.54;58.28;101686.03;6167150;23;19909;-78
2022/05/29 13:09:24;;;;;;;;;;;;;;;20.53;57.68;101682.56;6168347;23;19961;-78
2022/05/29 13:12:00;;;;;;;;;;;;;;;20.50;57.85;101673.84;6140278;23;19920;-78
2022/05/29 13:14:26;;;;;;;;;;;;;;;20.50;57.32;101674.72;6138983;23;19924;-79
2022/05/29 13:17:04;;;;;;;;;;;;;;;20.54;57.05;101678.19;6165302;23;19919;-78